sensor_id;sensor_type;location;lat;lon;timestamp;P1;durP1;ratioP1;P2;durP2;ratioP2
41755;SDS011;27435;48.480;9.258;2024-03-08T00:01:30;33.77;;;16.30;;
41755;SDS011;27435;48.480;9.258;2024-03-08T00:03:56;30.33;;;16.10;;
41755;SDS011;27435;48.480;9.258;2024-03-08T00:06:22;32.70;;;16.40;;
41755;SDS011;27435;48.480;9.258;2024-03-08T00:08:47;32.27;;;16.40;;
41755;SDS011;27435;48.480;9.258;2024-03-08T00:11:13;22.40;;;11.53;;
41755;SDS011;27435;48.480;9.258;2024-03-08T00:13:39;32.50;;;16.93;;
41755;SDS011;27435;48.480;9.258;2024-03-08T00:16:04;35.77;;;18.10;;
41755;SDS011;27435;48.480;9.258;2024-03-08T00:18:30;42.27;;;19.37;;
41755;SDS011;27435;48.480;9.258;2024-03-08T00:20:56;32.47;;;17.27;;
41755;SDS011;27435;48.480;9.258;2024-03-08T00:23:21;32.57;;;16.37;;
41755;SDS011;27435;48.480;9.258;2024-03-08T00:25:48;33.80;;;16.03;;
41755;SDS011;27435;48.480;9.258;2024-03-08T00:28:13;34.67;;;16.23;;
41755;SDS011;27435;48.480;9.258;2024-03-08T00:30:42;32.60;;;16.47;;
41755;SDS011;27435;48.480;9.258;2024-03-08T00:33:08;32.67;;;16.70;;
41755;SDS011;27435;48.480;9.258;2024-03-08T00:35:33;33.30;;;16.63;;
41755;SDS011;27435;48.480;9.258;2024-03-08T00:37:59;34.10;;;17.03;;
41755;SDS011;27435;48.480;9.258;2024-03-08T00:40:25;32.27;;;16.73;;
41755;SDS011;27435;48.480;9.258;2024-03-08T00:42:50;34.47;;;17.70;;
41755;SDS011;27435;48.480;9.258;2024-03-08T00:45:18;33.00;;;16.83;;
41755;SDS011;27435;48.480;9.258;2024-03-08T00:47:43;35.97;;;16.23;;
41755;SDS011;27435;48.480;9.258;2024-03-08T00:50:09;32.33;;;16.30;;
41755;SDS011;27435;48.480;9.258;2024-03-08T00:52:35;34.83;;;15.97;;
41755;SDS011;27435;48.480;9.258;2024-03-08T00:55:04;32.63;;;15.60;;
41755;SDS011;27435;48.480;9.258;2024-03-08T00:57:30;31.73;;;15.77;;
41755;SDS011;27435;48.480;9.258;2024-03-08T00:59:56;30.40;;;15.30;;
41755;SDS011;27435;48.480;9.258;2024-03-08T01:02:21;33.70;;;16.20;;
41755;SDS011;27435;48.480;9.258;2024-03-08T01:04:48;34.40;;;15.80;;
41755;SDS011;27435;48.480;9.258;2024-03-08T01:07:14;30.00;;;15.20;;
41755;SDS011;27435;48.480;9.258;2024-03-08T01:09:40;26.20;;;13.13;;
41755;SDS011;27435;48.480;9.258;2024-03-08T01:12:06;25.77;;;13.53;;
41755;SDS011;27435;48.480;9.258;2024-03-08T01:14:32;27.10;;;15.23;;
41755;SDS011;27435;48.480;9.258;2024-03-08T01:16:58;28.20;;;14.03;;
41755;SDS011;27435;48.480;9.258;2024-03-08T01:19:24;28.03;;;14.00;;
41755;SDS011;27435;48.480;9.258;2024-03-08T01:21:49;26.60;;;13.40;;
41755;SDS011;27435;48.480;9.258;2024-03-08T01:24:16;28.83;;;15.27;;
41755;SDS011;27435;48.480;9.258;2024-03-08T01:26:42;30.10;;;14.77;;
41755;SDS011;27435;48.480;9.258;2024-03-08T01:29:07;30.13;;;14.30;;
41755;SDS011;27435;48.480;9.258;2024-03-08T01:31:33;29.13;;;14.97;;
41755;SDS011;27435;48.480;9.258;2024-03-08T01:33:59;30.17;;;14.33;;
41755;SDS011;27435;48.480;9.258;2024-03-08T01:36:25;30.10;;;14.97;;
41755;SDS011;27435;48.480;9.258;2024-03-08T01:38:51;26.33;;;13.20;;
41755;SDS011;27435;48.480;9.258;2024-03-08T01:41:17;27.93;;;14.17;;
41755;SDS011;27435;48.480;9.258;2024-03-08T01:43:43;27.43;;;15.07;;
41755;SDS011;27435;48.480;9.258;2024-03-08T01:46:09;28.37;;;14.30;;
41755;SDS011;27435;48.480;9.258;2024-03-08T01:48:36;29.10;;;14.83;;
41755;SDS011;27435;48.480;9.258;2024-03-08T01:51:02;30.13;;;14.40;;
41755;SDS011;27435;48.480;9.258;2024-03-08T01:53:28;27.30;;;14.70;;
41755;SDS011;27435;48.480;9.258;2024-03-08T01:55:58;29.47;;;16.07;;
41755;SDS011;27435;48.480;9.258;2024-03-08T01:58:28;29.63;;;15.00;;
41755;SDS011;27435;48.480;9.258;2024-03-08T02:00:55;34.07;;;17.03;;
41755;SDS011;27435;48.480;9.258;2024-03-08T02:03:22;33.27;;;15.40;;
41755;SDS011;27435;48.480;9.258;2024-03-08T02:05:48;32.30;;;16.13;;
41755;SDS011;27435;48.480;9.258;2024-03-08T02:08:14;28.23;;;14.60;;
41755;SDS011;27435;48.480;9.258;2024-03-08T02:10:41;32.63;;;16.77;;
41755;SDS011;27435;48.480;9.258;2024-03-08T02:13:08;35.93;;;15.87;;
41755;SDS011;27435;48.480;9.258;2024-03-08T02:15:54;32.67;;;16.27;;
41755;SDS011;27435;48.480;9.258;2024-03-08T02:18:22;33.07;;;17.20;;
41755;SDS011;27435;48.480;9.258;2024-03-08T02:20:51;32.93;;;16.67;;
41755;SDS011;27435;48.480;9.258;2024-03-08T02:23:18;30.57;;;16.17;;
41755;SDS011;27435;48.480;9.258;2024-03-08T02:25:45;32.33;;;16.47;;
41755;SDS011;27435;48.480;9.258;2024-03-08T02:28:11;32.20;;;15.93;;
41755;SDS011;27435;48.480;9.258;2024-03-08T02:30:37;32.67;;;15.73;;
41755;SDS011;27435;48.480;9.258;2024-03-08T02:33:03;33.33;;;16.33;;
41755;SDS011;27435;48.480;9.258;2024-03-08T02:35:32;34.53;;;16.90;;
41755;SDS011;27435;48.480;9.258;2024-03-08T02:37:59;33.63;;;15.73;;
41755;SDS011;27435;48.480;9.258;2024-03-08T02:40:25;33.83;;;15.67;;
41755;SDS011;27435;48.480;9.258;2024-03-08T02:42:50;33.13;;;15.33;;
41755;SDS011;27435;48.480;9.258;2024-03-08T02:45:16;35.73;;;17.60;;
41755;SDS011;27435;48.480;9.258;2024-03-08T02:47:42;32.37;;;16.07;;
41755;SDS011;27435;48.480;9.258;2024-03-08T02:50:08;35.07;;;17.37;;
41755;SDS011;27435;48.480;9.258;2024-03-08T02:52:34;31.63;;;15.63;;
41755;SDS011;27435;48.480;9.258;2024-03-08T02:55:00;35.67;;;16.23;;
41755;SDS011;27435;48.480;9.258;2024-03-08T02:57:31;36.03;;;17.07;;
41755;SDS011;27435;48.480;9.258;2024-03-08T02:59:57;35.97;;;17.27;;
41755;SDS011;27435;48.480;9.258;2024-03-08T03:02:24;33.50;;;16.93;;
41755;SDS011;27435;48.480;9.258;2024-03-08T03:04:51;38.20;;;17.43;;
41755;SDS011;27435;48.480;9.258;2024-03-08T03:07:17;33.23;;;17.53;;
41755;SDS011;27435;48.480;9.258;2024-03-08T03:09:43;35.23;;;16.37;;
41755;SDS011;27435;48.480;9.258;2024-03-08T03:12:08;38.83;;;17.97;;
41755;SDS011;27435;48.480;9.258;2024-03-08T03:14:37;39.80;;;18.13;;
41755;SDS011;27435;48.480;9.258;2024-03-08T03:17:05;37.70;;;16.60;;
41755;SDS011;27435;48.480;9.258;2024-03-08T03:19:31;31.73;;;16.70;;
41755;SDS011;27435;48.480;9.258;2024-03-08T03:21:57;33.93;;;16.43;;
41755;SDS011;27435;48.480;9.258;2024-03-08T03:24:23;32.07;;;14.90;;
41755;SDS011;27435;48.480;9.258;2024-03-08T03:26:49;36.60;;;15.47;;
41755;SDS011;27435;48.480;9.258;2024-03-08T03:29:15;35.20;;;15.97;;
41755;SDS011;27435;48.480;9.258;2024-03-08T03:31:42;34.13;;;16.63;;
41755;SDS011;27435;48.480;9.258;2024-03-08T03:34:10;32.33;;;15.63;;
41755;SDS011;27435;48.480;9.258;2024-03-08T03:36:37;31.97;;;15.70;;
41755;SDS011;27435;48.480;9.258;2024-03-08T03:39:07;31.83;;;16.27;;
41755;SDS011;27435;48.480;9.258;2024-03-08T03:41:38;37.27;;;17.60;;
41755;SDS011;27435;48.480;9.258;2024-03-08T03:44:04;35.73;;;16.77;;
41755;SDS011;27435;48.480;9.258;2024-03-08T03:46:31;37.67;;;17.47;;
41755;SDS011;27435;48.480;9.258;2024-03-08T03:48:57;33.63;;;15.77;;
41755;SDS011;27435;48.480;9.258;2024-03-08T03:51:23;38.70;;;17.67;;
41755;SDS011;27435;48.480;9.258;2024-03-08T03:53:49;40.50;;;18.50;;
41755;SDS011;27435;48.480;9.258;2024-03-08T03:56:15;36.50;;;16.47;;
41755;SDS011;27435;48.480;9.258;2024-03-08T03:58:41;34.73;;;16.90;;
41755;SDS011;27435;48.480;9.258;2024-03-08T04:01:07;36.53;;;17.00;;
41755;SDS011;27435;48.480;9.258;2024-03-08T04:03:34;39.87;;;18.23;;
41755;SDS011;27435;48.480;9.258;2024-03-08T04:06:00;37.33;;;17.07;;
41755;SDS011;27435;48.480;9.258;2024-03-08T04:08:27;37.23;;;17.07;;
41755;SDS011;27435;48.480;9.258;2024-03-08T04:10:52;40.00;;;18.40;;
41755;SDS011;27435;48.480;9.258;2024-03-08T04:13:18;39.00;;;17.50;;
41755;SDS011;27435;48.480;9.258;2024-03-08T04:15:45;34.87;;;17.97;;
41755;SDS011;27435;48.480;9.258;2024-03-08T04:18:13;36.63;;;17.67;;
41755;SDS011;27435;48.480;9.258;2024-03-08T04:20:39;40.17;;;18.47;;
41755;SDS011;27435;48.480;9.258;2024-03-08T04:23:05;43.30;;;19.33;;
41755;SDS011;27435;48.480;9.258;2024-03-08T04:25:31;37.03;;;17.30;;
41755;SDS011;27435;48.480;9.258;2024-03-08T04:27:57;38.47;;;16.93;;
41755;SDS011;27435;48.480;9.258;2024-03-08T04:30:22;36.57;;;16.37;;
41755;SDS011;27435;48.480;9.258;2024-03-08T04:32:49;38.13;;;17.70;;
41755;SDS011;27435;48.480;9.258;2024-03-08T04:35:15;38.87;;;18.47;;
41755;SDS011;27435;48.480;9.258;2024-03-08T04:37:41;40.03;;;18.43;;
41755;SDS011;27435;48.480;9.258;2024-03-08T04:40:06;36.43;;;17.13;;
41755;SDS011;27435;48.480;9.258;2024-03-08T04:42:32;34.47;;;18.20;;
41755;SDS011;27435;48.480;9.258;2024-03-08T04:44:59;37.70;;;17.20;;
41755;SDS011;27435;48.480;9.258;2024-03-08T04:47:25;38.23;;;17.23;;
41755;SDS011;27435;48.480;9.258;2024-03-08T04:49:50;37.60;;;17.43;;
41755;SDS011;27435;48.480;9.258;2024-03-08T04:52:16;37.20;;;17.37;;
41755;SDS011;27435;48.480;9.258;2024-03-08T04:54:42;35.20;;;17.73;;
41755;SDS011;27435;48.480;9.258;2024-03-08T04:57:09;37.00;;;16.97;;
41755;SDS011;27435;48.480;9.258;2024-03-08T04:59:36;38.83;;;17.77;;
41755;SDS011;27435;48.480;9.258;2024-03-08T05:02:02;39.83;;;17.90;;
41755;SDS011;27435;48.480;9.258;2024-03-08T05:04:28;39.90;;;17.00;;
41755;SDS011;27435;48.480;9.258;2024-03-08T05:06:54;36.43;;;17.23;;
41755;SDS011;27435;48.480;9.258;2024-03-08T05:09:20;35.17;;;17.00;;
41755;SDS011;27435;48.480;9.258;2024-03-08T05:11:46;41.67;;;18.67;;
41755;SDS011;27435;48.480;9.258;2024-03-08T05:14:12;38.40;;;18.23;;
41755;SDS011;27435;48.480;9.258;2024-03-08T05:16:44;33.63;;;17.37;;
41755;SDS011;27435;48.480;9.258;2024-03-08T05:19:13;37.07;;;17.77;;
41755;SDS011;27435;48.480;9.258;2024-03-08T05:21:41;38.53;;;17.90;;
41755;SDS011;27435;48.480;9.258;2024-03-08T05:24:08;38.10;;;18.07;;
41755;SDS011;27435;48.480;9.258;2024-03-08T05:26:35;30.67;;;15.23;;
41755;SDS011;27435;48.480;9.258;2024-03-08T05:29:02;36.60;;;17.43;;
41755;SDS011;27435;48.480;9.258;2024-03-08T05:31:28;32.33;;;16.67;;
41755;SDS011;27435;48.480;9.258;2024-03-08T05:33:56;34.50;;;17.03;;
41755;SDS011;27435;48.480;9.258;2024-03-08T05:36:21;34.67;;;16.17;;
41755;SDS011;27435;48.480;9.258;2024-03-08T05:38:47;31.47;;;16.67;;
41755;SDS011;27435;48.480;9.258;2024-03-08T05:41:15;36.03;;;16.37;;
41755;SDS011;27435;48.480;9.258;2024-03-08T05:43:41;40.13;;;17.80;;
41755;SDS011;27435;48.480;9.258;2024-03-08T05:46:07;35.47;;;15.97;;
41755;SDS011;27435;48.480;9.258;2024-03-08T05:48:33;34.13;;;16.97;;
41755;SDS011;27435;48.480;9.258;2024-03-08T05:50:59;33.17;;;16.80;;
41755;SDS011;27435;48.480;9.258;2024-03-08T05:53:26;32.93;;;15.70;;
41755;SDS011;27435;48.480;9.258;2024-03-08T05:55:52;34.17;;;16.27;;
41755;SDS011;27435;48.480;9.258;2024-03-08T05:58:19;34.10;;;17.10;;
41755;SDS011;27435;48.480;9.258;2024-03-08T06:00:44;36.87;;;16.67;;
41755;SDS011;27435;48.480;9.258;2024-03-08T06:03:11;33.10;;;16.13;;
41755;SDS011;27435;48.480;9.258;2024-03-08T06:05:37;31.07;;;14.93;;
41755;SDS011;27435;48.480;9.258;2024-03-08T06:08:03;31.87;;;15.10;;
41755;SDS011;27435;48.480;9.258;2024-03-08T06:10:29;32.43;;;16.20;;
41755;SDS011;27435;48.480;9.258;2024-03-08T06:12:55;30.03;;;16.53;;
41755;SDS011;27435;48.480;9.258;2024-03-08T06:15:20;32.27;;;16.23;;
41755;SDS011;27435;48.480;9.258;2024-03-08T06:17:46;33.67;;;17.23;;
41755;SDS011;27435;48.480;9.258;2024-03-08T06:20:12;36.13;;;18.30;;
41755;SDS011;27435;48.480;9.258;2024-03-08T06:22:41;32.67;;;15.50;;
41755;SDS011;27435;48.480;9.258;2024-03-08T06:25:10;34.07;;;16.63;;
41755;SDS011;27435;48.480;9.258;2024-03-08T06:27:39;36.70;;;15.47;;
41755;SDS011;27435;48.480;9.258;2024-03-08T06:30:06;31.63;;;16.10;;
41755;SDS011;27435;48.480;9.258;2024-03-08T06:32:34;29.33;;;15.07;;
41755;SDS011;27435;48.480;9.258;2024-03-08T06:35:03;35.33;;;16.13;;
41755;SDS011;27435;48.480;9.258;2024-03-08T06:37:31;30.03;;;15.40;;
41755;SDS011;27435;48.480;9.258;2024-03-08T06:39:57;30.40;;;15.77;;
41755;SDS011;27435;48.480;9.258;2024-03-08T06:42:23;29.20;;;14.90;;
41755;SDS011;27435;48.480;9.258;2024-03-08T06:44:49;34.10;;;16.17;;
41755;SDS011;27435;48.480;9.258;2024-03-08T06:47:17;29.90;;;15.43;;
41755;SDS011;27435;48.480;9.258;2024-03-08T06:49:43;31.20;;;15.73;;
41755;SDS011;27435;48.480;9.258;2024-03-08T06:52:12;35.80;;;15.87;;
41755;SDS011;27435;48.480;9.258;2024-03-08T06:54:37;30.27;;;14.70;;
41755;SDS011;27435;48.480;9.258;2024-03-08T06:57:03;30.80;;;15.50;;
41755;SDS011;27435;48.480;9.258;2024-03-08T06:59:30;31.33;;;16.53;;
41755;SDS011;27435;48.480;9.258;2024-03-08T07:01:56;32.87;;;15.83;;
41755;SDS011;27435;48.480;9.258;2024-03-08T07:04:21;30.07;;;15.63;;
41755;SDS011;27435;48.480;9.258;2024-03-08T07:06:51;32.97;;;16.07;;
41755;SDS011;27435;48.480;9.258;2024-03-08T07:09:17;27.40;;;14.37;;
41755;SDS011;27435;48.480;9.258;2024-03-08T07:11:42;31.40;;;15.60;;
41755;SDS011;27435;48.480;9.258;2024-03-08T07:14:08;29.43;;;14.93;;
41755;SDS011;27435;48.480;9.258;2024-03-08T07:16:34;30.10;;;16.00;;
41755;SDS011;27435;48.480;9.258;2024-03-08T07:19:04;32.73;;;15.90;;
41755;SDS011;27435;48.480;9.258;2024-03-08T07:21:30;29.37;;;16.07;;
41755;SDS011;27435;48.480;9.258;2024-03-08T07:23:56;31.23;;;15.57;;
41755;SDS011;27435;48.480;9.258;2024-03-08T07:26:25;29.07;;;15.20;;
41755;SDS011;27435;48.480;9.258;2024-03-08T07:28:51;33.30;;;15.23;;
41755;SDS011;27435;48.480;9.258;2024-03-08T07:31:17;34.10;;;16.77;;
41755;SDS011;27435;48.480;9.258;2024-03-08T07:34:00;32.53;;;15.70;;
41755;SDS011;27435;48.480;9.258;2024-03-08T07:36:25;29.47;;;14.40;;
41755;SDS011;27435;48.480;9.258;2024-03-08T07:38:51;30.53;;;15.63;;
41755;SDS011;27435;48.480;9.258;2024-03-08T07:41:17;32.70;;;14.73;;
41755;SDS011;27435;48.480;9.258;2024-03-08T07:43:42;32.53;;;15.53;;
41755;SDS011;27435;48.480;9.258;2024-03-08T07:46:09;30.93;;;15.33;;
41755;SDS011;27435;48.480;9.258;2024-03-08T07:48:35;30.80;;;16.13;;
41755;SDS011;27435;48.480;9.258;2024-03-08T07:51:01;30.23;;;14.67;;
41755;SDS011;27435;48.480;9.258;2024-03-08T07:53:30;29.97;;;14.70;;
41755;SDS011;27435;48.480;9.258;2024-03-08T07:55:56;29.20;;;14.63;;
41755;SDS011;27435;48.480;9.258;2024-03-08T07:58:22;33.97;;;16.77;;
41755;SDS011;27435;48.480;9.258;2024-03-08T08:00:48;28.77;;;14.33;;
41755;SDS011;27435;48.480;9.258;2024-03-08T08:03:14;29.43;;;14.13;;
41755;SDS011;27435;48.480;9.258;2024-03-08T08:05:41;26.00;;;13.73;;
41755;SDS011;27435;48.480;9.258;2024-03-08T08:08:09;28.47;;;14.20;;
41755;SDS011;27435;48.480;9.258;2024-03-08T08:10:35;26.97;;;13.70;;
41755;SDS011;27435;48.480;9.258;2024-03-08T08:13:02;25.23;;;13.90;;
41755;SDS011;27435;48.480;9.258;2024-03-08T08:15:29;31.00;;;14.70;;
41755;SDS011;27435;48.480;9.258;2024-03-08T08:17:55;25.43;;;14.50;;
41755;SDS011;27435;48.480;9.258;2024-03-08T08:20:21;26.57;;;14.33;;
41755;SDS011;27435;48.480;9.258;2024-03-08T08:22:48;27.70;;;14.80;;
41755;SDS011;27435;48.480;9.258;2024-03-08T08:25:14;25.13;;;14.30;;
41755;SDS011;27435;48.480;9.258;2024-03-08T08:27:40;32.13;;;15.50;;
41755;SDS011;27435;48.480;9.258;2024-03-08T08:30:07;26.43;;;14.30;;
41755;SDS011;27435;48.480;9.258;2024-03-08T08:32:37;24.57;;;13.90;;
41755;SDS011;27435;48.480;9.258;2024-03-08T08:35:09;24.25;;;12.82;;
41755;SDS011;27435;48.480;9.258;2024-03-08T08:37:38;26.33;;;12.70;;
41755;SDS011;27435;48.480;9.258;2024-03-08T08:40:04;21.77;;;11.30;;
41755;SDS011;27435;48.480;9.258;2024-03-08T08:42:34;21.93;;;11.20;;
41755;SDS011;27435;48.480;9.258;2024-03-08T08:45:04;21.93;;;12.50;;
41755;SDS011;27435;48.480;9.258;2024-03-08T08:47:34;21.70;;;12.00;;
41755;SDS011;27435;48.480;9.258;2024-03-08T08:50:01;21.90;;;12.00;;
41755;SDS011;27435;48.480;9.258;2024-03-08T08:52:27;28.70;;;14.80;;
41755;SDS011;27435;48.480;9.258;2024-03-08T08:54:54;24.20;;;13.27;;
41755;SDS011;27435;48.480;9.258;2024-03-08T08:57:20;21.83;;;11.60;;
41755;SDS011;27435;48.480;9.258;2024-03-08T08:59:45;23.63;;;12.10;;
41755;SDS011;27435;48.480;9.258;2024-03-08T09:02:11;24.30;;;12.87;;
41755;SDS011;27435;48.480;9.258;2024-03-08T09:04:38;26.27;;;13.07;;
41755;SDS011;27435;48.480;9.258;2024-03-08T09:07:03;23.33;;;12.60;;
41755;SDS011;27435;48.480;9.258;2024-03-08T09:09:31;22.83;;;12.97;;
41755;SDS011;27435;48.480;9.258;2024-03-08T09:11:57;25.57;;;12.90;;
41755;SDS011;27435;48.480;9.258;2024-03-08T09:14:23;21.17;;;11.33;;
41755;SDS011;27435;48.480;9.258;2024-03-08T09:16:51;22.53;;;12.10;;
41755;SDS011;27435;48.480;9.258;2024-03-08T09:19:16;24.00;;;13.30;;
41755;SDS011;27435;48.480;9.258;2024-03-08T09:21:44;22.83;;;11.93;;
41755;SDS011;27435;48.480;9.258;2024-03-08T09:24:10;20.63;;;11.57;;
41755;SDS011;27435;48.480;9.258;2024-03-08T09:26:36;25.77;;;12.77;;
41755;SDS011;27435;48.480;9.258;2024-03-08T09:29:02;23.60;;;12.77;;
41755;SDS011;27435;48.480;9.258;2024-03-08T09:31:28;22.87;;;12.70;;
41755;SDS011;27435;48.480;9.258;2024-03-08T09:33:53;24.07;;;12.67;;
41755;SDS011;27435;48.480;9.258;2024-03-08T09:36:19;26.67;;;13.43;;
41755;SDS011;27435;48.480;9.258;2024-03-08T09:38:45;22.67;;;12.47;;
41755;SDS011;27435;48.480;9.258;2024-03-08T09:41:10;23.10;;;12.47;;
41755;SDS011;27435;48.480;9.258;2024-03-08T09:43:37;22.20;;;12.10;;
41755;SDS011;27435;48.480;9.258;2024-03-08T09:46:04;24.67;;;13.03;;
41755;SDS011;27435;48.480;9.258;2024-03-08T09:48:31;23.60;;;11.97;;
41755;SDS011;27435;48.480;9.258;2024-03-08T09:50:57;25.20;;;12.10;;
41755;SDS011;27435;48.480;9.258;2024-03-08T09:53:23;21.47;;;11.30;;
41755;SDS011;27435;48.480;9.258;2024-03-08T09:55:49;23.23;;;12.03;;
41755;SDS011;27435;48.480;9.258;2024-03-08T09:58:15;21.43;;;11.93;;
41755;SDS011;27435;48.480;9.258;2024-03-08T10:00:52;22.03;;;12.17;;
41755;SDS011;27435;48.480;9.258;2024-03-08T10:03:19;20.47;;;12.40;;
41755;SDS011;27435;48.480;9.258;2024-03-08T10:05:44;21.17;;;11.33;;
41755;SDS011;27435;48.480;9.258;2024-03-08T10:08:11;21.60;;;12.07;;
41755;SDS011;27435;48.480;9.258;2024-03-08T10:10:38;20.63;;;11.73;;
41755;SDS011;27435;48.480;9.258;2024-03-08T10:13:07;23.90;;;12.60;;
41755;SDS011;27435;48.480;9.258;2024-03-08T10:15:33;22.07;;;13.00;;
41755;SDS011;27435;48.480;9.258;2024-03-08T10:17:58;22.50;;;11.70;;
41755;SDS011;27435;48.480;9.258;2024-03-08T10:20:24;22.97;;;12.03;;
41755;SDS011;27435;48.480;9.258;2024-03-08T10:22:51;23.17;;;12.53;;
41755;SDS011;27435;48.480;9.258;2024-03-08T10:25:18;25.57;;;12.93;;
41755;SDS011;27435;48.480;9.258;2024-03-08T10:27:44;24.67;;;12.53;;
41755;SDS011;27435;48.480;9.258;2024-03-08T10:30:11;21.87;;;10.83;;
41755;SDS011;27435;48.480;9.258;2024-03-08T10:32:39;21.93;;;12.03;;
41755;SDS011;27435;48.480;9.258;2024-03-08T10:35:06;22.60;;;11.83;;
41755;SDS011;27435;48.480;9.258;2024-03-08T10:37:33;23.30;;;12.67;;
41755;SDS011;27435;48.480;9.258;2024-03-08T10:40:07;21.40;;;11.63;;
41755;SDS011;27435;48.480;9.258;2024-03-08T10:42:41;24.93;;;13.10;;
41755;SDS011;27435;48.480;9.258;2024-03-08T10:45:19;21.27;;;11.93;;
41755;SDS011;27435;48.480;9.258;2024-03-08T10:48:01;24.10;;;12.77;;
41755;SDS011;27435;48.480;9.258;2024-03-08T10:50:31;24.23;;;13.00;;
41755;SDS011;27435;48.480;9.258;2024-03-08T10:52:59;27.90;;;12.60;;
41755;SDS011;27435;48.480;9.258;2024-03-08T10:55:26;19.67;;;11.53;;
41755;SDS011;27435;48.480;9.258;2024-03-08T10:57:53;20.57;;;11.17;;
41755;SDS011;27435;48.480;9.258;2024-03-08T11:00:19;24.80;;;13.50;;
41755;SDS011;27435;48.480;9.258;2024-03-08T11:02:51;23.93;;;12.80;;
41755;SDS011;27435;48.480;9.258;2024-03-08T11:05:32;21.03;;;12.20;;
41755;SDS011;27435;48.480;9.258;2024-03-08T11:08:03;25.20;;;13.37;;
41755;SDS011;27435;48.480;9.258;2024-03-08T11:13:33;22.33;;;11.50;;
41755;SDS011;27435;48.480;9.258;2024-03-08T11:16:09;21.47;;;11.27;;
41755;SDS011;27435;48.480;9.258;2024-03-08T11:18:36;24.10;;;13.27;;
41755;SDS011;27435;48.480;9.258;2024-03-08T11:21:07;22.47;;;12.70;;
41755;SDS011;27435;48.480;9.258;2024-03-08T11:23:37;21.83;;;12.30;;
41755;SDS011;27435;48.480;9.258;2024-03-08T11:26:17;25.27;;;12.77;;
41755;SDS011;27435;48.480;9.258;2024-03-08T11:28:43;24.20;;;13.03;;
41755;SDS011;27435;48.480;9.258;2024-03-08T11:33:35;23.27;;;12.97;;
41755;SDS011;27435;48.480;9.258;2024-03-08T11:36:10;22.10;;;12.17;;
41755;SDS011;27435;48.480;9.258;2024-03-08T11:38:45;23.53;;;12.60;;
41755;SDS011;27435;48.480;9.258;2024-03-08T11:41:17;25.57;;;13.07;;
41755;SDS011;27435;48.480;9.258;2024-03-08T11:43:45;23.70;;;12.23;;
41755;SDS011;27435;48.480;9.258;2024-03-08T11:46:11;26.33;;;14.50;;
41755;SDS011;27435;48.480;9.258;2024-03-08T11:48:41;24.47;;;13.00;;
41755;SDS011;27435;48.480;9.258;2024-03-08T11:51:09;22.87;;;12.40;;
41755;SDS011;27435;48.480;9.258;2024-03-08T11:53:39;22.60;;;13.03;;
41755;SDS011;27435;48.480;9.258;2024-03-08T11:56:15;23.37;;;12.30;;
41755;SDS011;27435;48.480;9.258;2024-03-08T11:58:40;24.98;;;13.32;;
41755;SDS011;27435;48.480;9.258;2024-03-08T12:01:10;22.90;;;12.33;;
41755;SDS011;27435;48.480;9.258;2024-03-08T12:03:39;22.20;;;11.83;;
41755;SDS011;27435;48.480;9.258;2024-03-08T12:06:07;22.10;;;13.47;;
41755;SDS011;27435;48.480;9.258;2024-03-08T12:08:38;22.97;;;12.87;;
41755;SDS011;27435;48.480;9.258;2024-03-08T12:11:04;23.97;;;12.23;;
41755;SDS011;27435;48.480;9.258;2024-03-08T12:13:30;26.33;;;13.13;;
41755;SDS011;27435;48.480;9.258;2024-03-08T12:15:59;24.97;;;13.30;;
41755;SDS011;27435;48.480;9.258;2024-03-08T12:18:25;22.80;;;12.73;;
41755;SDS011;27435;48.480;9.258;2024-03-08T12:21:03;21.33;;;12.37;;
41755;SDS011;27435;48.480;9.258;2024-03-08T12:23:37;24.30;;;12.97;;
41755;SDS011;27435;48.480;9.258;2024-03-08T12:26:13;24.17;;;13.03;;
41755;SDS011;27435;48.480;9.258;2024-03-08T12:28:43;22.00;;;11.93;;
41755;SDS011;27435;48.480;9.258;2024-03-08T12:31:14;22.20;;;12.53;;
41755;SDS011;27435;48.480;9.258;2024-03-08T12:33:50;22.03;;;12.60;;
41755;SDS011;27435;48.480;9.258;2024-03-08T12:36:20;24.03;;;12.57;;
41755;SDS011;27435;48.480;9.258;2024-03-08T12:38:46;22.10;;;11.97;;
41755;SDS011;27435;48.480;9.258;2024-03-08T12:41:18;22.77;;;13.07;;
41755;SDS011;27435;48.480;9.258;2024-03-08T12:43:44;21.30;;;12.10;;
41755;SDS011;27435;48.480;9.258;2024-03-08T12:46:15;26.70;;;14.20;;
41755;SDS011;27435;48.480;9.258;2024-03-08T12:48:41;22.30;;;12.00;;
41755;SDS011;27435;48.480;9.258;2024-03-08T12:51:15;24.67;;;12.57;;
41755;SDS011;27435;48.480;9.258;2024-03-08T12:53:43;23.13;;;13.47;;
41755;SDS011;27435;48.480;9.258;2024-03-08T12:56:09;20.67;;;11.97;;
41755;SDS011;27435;48.480;9.258;2024-03-08T12:58:36;23.23;;;11.77;;
41755;SDS011;27435;48.480;9.258;2024-03-08T13:01:04;19.70;;;11.80;;
41755;SDS011;27435;48.480;9.258;2024-03-08T13:03:32;19.97;;;11.80;;
41755;SDS011;27435;48.480;9.258;2024-03-08T13:06:05;20.23;;;11.90;;
41755;SDS011;27435;48.480;9.258;2024-03-08T13:08:39;20.90;;;12.00;;
41755;SDS011;27435;48.480;9.258;2024-03-08T13:11:08;17.30;;;11.27;;
41755;SDS011;27435;48.480;9.258;2024-03-08T13:13:36;20.30;;;11.17;;
41755;SDS011;27435;48.480;9.258;2024-03-08T13:16:03;20.27;;;11.83;;
41755;SDS011;27435;48.480;9.258;2024-03-08T13:18:33;22.27;;;11.87;;
41755;SDS011;27435;48.480;9.258;2024-03-08T13:20:58;21.03;;;12.30;;
41755;SDS011;27435;48.480;9.258;2024-03-08T13:23:24;20.13;;;11.70;;
41755;SDS011;27435;48.480;9.258;2024-03-08T13:25:50;19.03;;;11.83;;
41755;SDS011;27435;48.480;9.258;2024-03-08T13:28:16;22.30;;;12.57;;
41755;SDS011;27435;48.480;9.258;2024-03-08T13:30:47;22.13;;;12.00;;
41755;SDS011;27435;48.480;9.258;2024-03-08T13:33:13;19.70;;;12.03;;
41755;SDS011;27435;48.480;9.258;2024-03-08T13:35:39;19.23;;;11.00;;
41755;SDS011;27435;48.480;9.258;2024-03-08T13:38:06;21.30;;;11.13;;
41755;SDS011;27435;48.480;9.258;2024-03-08T13:40:34;21.97;;;12.40;;
41755;SDS011;27435;48.480;9.258;2024-03-08T13:43:00;25.47;;;13.17;;
41755;SDS011;27435;48.480;9.258;2024-03-08T13:45:26;22.60;;;12.43;;
41755;SDS011;27435;48.480;9.258;2024-03-08T13:47:52;21.00;;;11.87;;
41755;SDS011;27435;48.480;9.258;2024-03-08T13:50:18;22.57;;;11.60;;
41755;SDS011;27435;48.480;9.258;2024-03-08T13:52:47;18.67;;;11.57;;
41755;SDS011;27435;48.480;9.258;2024-03-08T13:55:18;21.23;;;12.63;;
41755;SDS011;27435;48.480;9.258;2024-03-08T13:57:44;19.40;;;11.77;;
41755;SDS011;27435;48.480;9.258;2024-03-08T14:00:11;19.83;;;11.70;;
41755;SDS011;27435;48.480;9.258;2024-03-08T14:02:37;20.50;;;11.30;;
41755;SDS011;27435;48.480;9.258;2024-03-08T14:05:09;20.10;;;10.73;;
41755;SDS011;27435;48.480;9.258;2024-03-08T14:07:36;20.63;;;11.30;;
41755;SDS011;27435;48.480;9.258;2024-03-08T14:10:02;19.90;;;11.10;;
41755;SDS011;27435;48.480;9.258;2024-03-08T14:12:28;18.03;;;10.57;;
41755;SDS011;27435;48.480;9.258;2024-03-08T14:14:54;19.47;;;10.33;;
41755;SDS011;27435;48.480;9.258;2024-03-08T14:17:24;17.27;;;10.85;;
41755;SDS011;27435;48.480;9.258;2024-03-08T14:19:54;19.97;;;10.73;;
41755;SDS011;27435;48.480;9.258;2024-03-08T14:22:19;17.03;;;9.87;;
41755;SDS011;27435;48.480;9.258;2024-03-08T14:24:48;17.83;;;9.87;;
41755;SDS011;27435;48.480;9.258;2024-03-08T14:27:19;18.52;;;10.15;;